Latest Coastal Weather Observations for Hobart

IDT60701

Issued at 11:22 pm EST Friday 5 June 2020 (issued every 10 minutes, with the page automatically refreshed every 10 minutes)

About coastal observations | Map of coastal stations | Coastal observations for TAS | Marine services | Other Formats
Station Details ID: 094029 Name: HOBART (ELLERSLIE ROAD) Lat: -42.89 Lon: 147.33 Height: 50.5 m
Data from the previous 72 hours. | See also: Recent months at Hobart
Date/Time
EST
Wind Sea
Height
m
Swell Vis
km
Cloud Weather Temp
°C
Press
hPa
Rain since
9am
mm
Dir  Spd
kts
Gust
kts
Height
m
Period
s
Dir
05/11:00pm SW 10 15 - - - - - - - 6.6 1027.6 2.4
05/10:30pm SW 9 15 - - - - - - - 6.2 1027.5 2.4
05/10:00pm WNW 4 6 - - - - - - - 6.5 1027.6 2.4
05/09:30pm S 3 5 - - - - - - - 6.2 1027.7 2.4
05/09:00pm SSW 9 15 - - - - - - - 6.5 1027.6 2.4
05/08:30pm SSW 12 16 - - - - - - - 6.9 1027.5 2.4
05/08:00pm SSW 13 16 - - - - - - - 7.2 1027.2 2.4
05/07:30pm SSW 13 15 - - - - - - - 7.2 1026.9 2.4
05/07:00pm SSW 12 17 - - - - - - - 7.4 1026.4 2.4
05/06:30pm SSW 13 19 - - - - - - - 7.7 1026.1 2.4
05/06:00pm SSW 9 14 - - - - - - - 7.6 1026.1 2.2
05/05:30pm SSW 9 13 - - - - - - - 7.9 1025.7 2.2
05/05:00pm S 13 21 - - - - - - - 8.1 1025.1 2.2
05/04:30pm S 11 16 - - - - - - - 8.4 1024.6 1.8
05/04:00pm SSE 10 18 - - - - - - - 8.6 1024.4 1.6
05/03:30pm S 12 17 - - - - - - - 8.8 1024.0 1.6
05/03:00pm S 8 14 - - - - - - - 9.5 1023.7 1.6
05/02:30pm SSE 9 14 - - - - - - - 9.6 1023.3 1.6
05/02:00pm S 13 20 - - - - - - - 9.8 1022.9 1.6
05/01:31pm SSW 15 27 - - - - - - - 11.0 1022.1 0.8
05/01:30pm SSW 13 27 - - - - - - - 11.1 1022.1 0.6
05/01:00pm SSW 10 19 - - - - - - - 12.1 1021.5 0.2
05/12:30pm SSE 13 20 - - - - - - - 12.4 1021.4 0.0
05/12:27pm SE 11 20 - - - - - - - 12.7 1021.3 0.0
05/12:00pm E 5 8 - - - - - - - 13.8 1020.8 0.0
05/11:45am N 11 25 - - - - - - - 14.1 1020.9 0.0
05/11:30am NNE 12 20 - - - - - - - 13.6 1020.8 0.0
05/11:00am N 14 21 - - - - - - - 12.9 1021.2 0.0
05/10:30am NNE 13 17 - - - - - - - 12.6 1021.5 0.0
05/10:00am N 13 18 - - - - - - - 12.1 1021.9 0.0
05/09:30am N 13 18 - - - - - - - 11.9 1022.0 0.0
05/09:00am NNW 12 17 - - - - - - - 11.4 1022.1 0.0
05/08:30am NNW 13 18 - - - - - - - 11.1 1022.2 0.0
05/08:00am NNW 18 25 - - - - - - - 11.0 1021.7 0.0
05/07:30am NNW 19 26 - - - - - - - 11.0 1021.6 0.0
05/07:00am NW 18 25 - - - - - - - 10.8 1021.5 0.0
05/06:30am NW 16 23 - - - - - - - 10.5 1021.7 0.0
05/06:16am NW 15 25 - - - - - - - 10.4 1021.8 0.0
05/06:00am NW 12 22 - - - - - - - 10.3 1022.1 0.0
05/05:30am NW 6 13 - - - - - - - 10.0 1022.0 0.0
05/05:00am NW 8 13 - - - - - - - 10.1 1021.9 0.0
05/04:30am NNW 9 17 - - - - - - - 10.2 1022.2 0.0
05/04:04am NW 15 25 - - - - - - - 10.2 1022.1 0.0
05/04:00am NW 15 23 - - - - - - - 10.1 1022.1 0.0
05/03:30am NW 16 27 - - - - - - - 10.2 1022.3 0.0
05/03:02am NW 15 29 - - - - - - - 10.3 1022.4 0.0
05/03:00am NW 13 22 - - - - - - - 10.2 1022.6 0.0
05/02:30am NW 15 25 - - - - - - - 10.2 1022.8 0.0
05/02:29am NW 15 25 - - - - - - - 10.2 1022.8 0.0
05/02:00am WNW 9 17 - - - - - - - 10.1 1023.6 0.0
05/01:30am NNW 8 17 - - - - - - - 10.1 1023.7 0.0
05/01:00am S 5 7 - - - - - - - 9.3 1024.1 0.0
05/12:30am W 7 16 - - - - - - - 9.5 1024.2 0.0
05/12:00am WNW 7 14 - - - - - - - 9.7 1024.8 0.0
 
Date/Time
EST
Wind Sea
Height
m
Swell Vis
km
Cloud Weather Temp
°C
Press
hPa
Rain since
9am
mm
Dir  Spd
kts
Gust
kts
Height
m
Period
s
Dir
04/11:30pm NNW 9 14 - - - - - - - 9.7 1025.0 0.0
04/11:00pm NW 8 15 - - - - - - - 9.6 1025.5 0.0
04/10:30pm NNW 9 16 - - - - - - - 9.7 1026.0 0.0
04/10:00pm NNW 14 19 - - - - - - - 9.7 1026.1 0.0
04/09:30pm NNW 12 15 - - - - - - - 9.6 1026.3 0.0
04/09:00pm NNW 13 19 - - - - - - - 9.7 1026.6 0.0
04/08:30pm WNW 9 15 - - - - - - - 9.4 1026.6 0.0
04/08:00pm NW 9 16 - - - - - - - 9.6 1026.9 0.0
04/07:30pm NW 11 17 - - - - - - - 9.8 1026.9 0.0
04/07:00pm W 6 8 - - - - - - - 8.3 1027.2 0.0
04/06:30pm W 5 7 - - - - - - - 8.2 1027.3 0.0
04/06:00pm WSW 5 7 - - - - - - - 9.0 1027.3 0.0
04/05:30pm NNW 11 17 - - - - - - - 10.8 1027.3 0.0
04/05:00pm NW 8 13 - - - - - - - 11.0 1027.5 0.0
04/04:30pm NNW 10 16 - - - - - - - 11.7 1027.5 0.0
04/04:00pm NW 10 13 - - - - - - - 12.3 1027.4 0.0
04/03:30pm NNW 10 14 - - - - - - - 13.1 1027.4 0.0
04/03:00pm NNW 11 15 - - - - - - - 13.4 1027.3 0.0
04/02:30pm NNW 13 19 - - - - - - - 13.0 1027.5 0.0
04/02:00pm NNW 13 18 - - - - - - - 13.5 1027.8 0.0
04/01:30pm NW 10 17 - - - - - - - 13.6 1028.1 0.0
04/01:00pm NW 12 17 - - - - - - - 13.0 1028.4 0.0
04/12:30pm NW 13 19 - - - - - - - 12.6 1028.6 0.0
04/12:00pm NNW 12 19 - - - - - - - 12.1 1029.1 0.0
04/11:30am NNW 13 18 - - - - - - - 11.6 1029.5 0.0
04/11:00am NNW 12 17 - - - - - - - 11.1 1030.1 0.0
04/10:30am NNW 10 16 - - - - - - - 10.3 1030.4 0.0
04/10:00am W 4 15 - - - - - - - 9.4 1030.8 0.0
04/09:30am WSW 4 7 - - - - - - - 8.1 1030.9 0.0
04/09:00am N 7 11 - - - - - - - 7.4 1031.0 0.0
04/08:30am NW 6 9 - - - - - - - 5.4 1030.9 0.0
04/08:00am WNW 4 7 - - - - - - - 4.7 1030.9 0.0
04/07:30am WSW 6 8 - - - - - - - 4.4 1030.7 0.0
04/07:00am W 6 8 - - - - - - - 4.2 1030.6 0.0
04/06:30am WNW 2 6 - - - - - - - 4.4 1030.6 0.0
04/06:00am W 4 8 - - - - - - - 4.4 1030.4 0.0
04/05:30am W 5 6 - - - - - - - 4.1 1030.2 0.0
04/05:00am WSW 7 9 - - - - - - - 4.3 1030.1 0.0
04/04:30am W 5 7 - - - - - - - 3.9 1030.1 0.0
04/04:00am W 6 8 - - - - - - - 4.1 1030.1 0.0
04/03:30am WSW 5 7 - - - - - - - 4.6 1030.2 0.0
04/03:00am WSW 7 10 - - - - - - - 4.5 1030.4 0.0
04/02:30am WSW 7 9 - - - - - - - 4.9 1030.7 0.0
04/02:00am W 4 9 - - - - - - - 5.0 1030.9 0.0
04/01:30am WSW 5 7 - - - - - - - 4.8 1031.2 0.0
04/01:00am SW 6 12 - - - - - - - 5.4 1031.4 0.0
04/12:30am WNW 5 9 - - - - - - - 5.4 1031.6 0.0
04/12:00am NNW 5 10 - - - - - - - 6.4 1031.8 0.0
 
Date/Time
EST
Wind Sea
Height
m
Swell Vis
km
Cloud Weather Temp
°C
Press
hPa
Rain since
9am
mm
Dir  Spd
kts
Gust
kts
Height
m
Period
s
Dir
03/11:30pm SSW 3 7 - - - - - - - 5.6 1031.8 0.0
03/11:00pm N 5 7 - - - - - - - 6.2 1031.7 0.0
03/10:30pm CALM 0 4 - - - - - - - 6.2 1031.7 0.0
03/10:00pm N 5 8 - - - - - - - 7.2 1031.8 0.0
03/09:30pm ENE 4 5 - - - - - - - 6.9 1031.5 0.0
03/09:00pm NNW 5 7 - - - - - - - 7.2 1031.3 0.0
03/08:30pm WSW 6 10 - - - - - - - 8.3 1031.2 0.0
03/08:00pm W 6 11 - - - - - - - 8.6 1031.0 0.0
03/07:30pm SW 8 12 - - - - - - - 8.5 1030.8 0.0
03/07:00pm SW 13 22 - - - - - - - 8.5 1030.4 0.0
03/06:30pm SSW 8 12 - - - - - - - 8.3 1030.2 0.0
03/06:00pm S 5 8 - - - - - - - 8.2 1029.8 0.0
03/05:30pm SE 4 8 - - - - - - - 9.0 1029.2 0.0
03/05:00pm SW 4 7 - - - - - - - 8.7 1029.0 0.0
03/04:30pm W 6 9 - - - - - - - 9.3 1028.8 0.0
03/04:00pm WSW 6 10 - - - - - - - 9.6 1028.5 0.0
03/03:30pm SW 8 10 - - - - - - - 10.0 1028.3 0.0
03/03:00pm WSW 6 11 - - - - - - - 10.1 1027.7 0.0
03/02:30pm SW 8 13 - - - - - - - 10.2 1027.5 0.0
03/02:00pm SW 11 18 - - - - - - - 11.2 1027.5 0.0
03/01:30pm SW 11 17 - - - - - - - 10.9 1027.2 0.0
03/01:00pm SSW 10 16 - - - - - - - 11.5 1027.0 0.0
03/12:30pm SSW 11 20 - - - - - - - 11.1 1027.0 0.0
03/12:00pm SW 10 20 - - - - - - - 11.2 1027.0 0.0
03/11:30am SSW 11 17 - - - - - - - 10.0 1026.9 0.0
03/11:00am SSW 10 16 - - - - - - - 10.0 1026.8 0.0
03/10:30am SW 8 17 - - - - - - - 10.0 1026.9 0.0
03/10:00am SW 8 17 - - - - - - - 8.3 1026.3 0.0
03/09:43am SW 15 26 - - - - - - - 8.4 1026.0 0.0
03/09:30am SW 11 20 - - - - - - - 8.6 1025.6 0.0
03/09:00am SW 13 21 - - - - - - - 8.6 1025.1 1.0
03/08:30am SW 17 27 - - - - - - - 7.7 1024.9 1.0
03/08:11am SW 15 28 - - - - - - - 7.6 1024.6 1.0
03/08:00am SSW 10 21 - - - - - - - 7.7 1024.5 1.0
03/07:30am SSW 8 13 - - - - - - - 7.6 1023.7 1.0
03/07:00am SSW 7 14 - - - - - - - 7.9 1023.0 1.0
03/06:30am S 10 16 - - - - - - - 8.0 1022.1 1.0
03/06:00am SSW 9 18 - - - - - - - 8.0 1021.6 1.0
03/05:30am SSW 11 20 - - - - - - - 8.0 1020.8 1.0
03/05:00am SSW 9 18 - - - - - - - 8.0 1019.9 1.0
03/04:30am SSW 12 20 - - - - - - - 8.0 1019.3 1.0
03/04:00am SSW 12 19 - - - - - - - 7.9 1018.5 1.0
03/03:30am SSW 9 17 - - - - - - - 8.2 1017.7 1.0
03/03:00am SSW 11 18 - - - - - - - 8.1 1016.8 1.0
03/02:30am SSW 12 20 - - - - - - - 8.8 1016.1 1.0
03/02:00am SSW 14 25 - - - - - - - 8.8 1015.2 1.0
03/01:53am SSW 15 26 - - - - - - - 9.0 1015.0 1.0
03/01:30am SW 10 18 - - - - - - - 8.8 1014.4 1.0
03/01:00am SW 9 15 - - - - - - - 9.0 1013.7 1.0
03/12:30am SSW 11 19 - - - - - - - 9.7 1012.8 1.0
03/12:00am SW 3 5 - - - - - - - 9.5 1012.1 1.0
 
Date/Time
EST
Wind Sea
Height
m
Swell Vis
km
Cloud Weather Temp
°C
Press
hPa
Rain since
9am
mm
Dir  Spd
kts
Gust
kts
Height
m
Period
s
Dir
02/11:30pm SSE 5 8 - - - - - - - 10.0 1011.7 1.0

Other formats

Comma delimited format used in spreadsheet applications
http://www.bom.gov.au/fwo/IDT60701/IDT60701.94970.axf

JavaScript Object Notation format (JSON) in row-major order
http://www.bom.gov.au/fwo/IDT60701/IDT60701.94970.json

Data quality

Most of these data are generated automatically and are frequently updated. Quality checks on data are not normally performed. It is possible for incorrect values to appear. Refer to information at About Latest Weather Observations and please check the disclaimer before using these data.